Joint Base Elmendorf-Richardson, Alaska
Current Conditions -  °F | °C
As of 8:58 AM on Sunday 25 Jan 2015 (Local Time) from PAED Reporting Station
Clear Clear  
Wind Chill: -2°   Ceiling: Unl
Heat Index: -2°   Visibility: 10mi
Dew Point: -7°   Wind: 2mph
Humidity: 81%   Direction: 80°E
Pressure: 29.66"   Gusts: NA
Location:  61.25°N, 149.81°W
Report Text: PAED 251758Z 08002KT 10SM CLR M19/M22 A2966 RMK AO2A SLP044 T11911216 11134 21241 52025
Loading
Personal Weather Stations






























Interactive Weather Map New forecast layout! Learn more

10-Day Weather Forecast

Advertisements
Track Severe Weather on mobile